createdAt,value
2022-12-14T00:01:19.196Z,49.23
2022-12-14T00:03:46.568Z,49.14
2022-12-14T00:06:14.315Z,49.41
2022-12-14T00:08:42.019Z,50.04
2022-12-14T00:11:09.041Z,50.45
2022-12-14T00:13:35.835Z,50.07
2022-12-14T00:16:16.311Z,49.78
2022-12-14T00:18:44.191Z,49.38
2022-12-14T00:21:13.743Z,49.47
2022-12-14T00:23:43.508Z,49.16
2022-12-14T00:26:11.928Z,49.31
2022-12-14T00:28:38.598Z,49.07
2022-12-14T00:31:05.449Z,48.71
2022-12-14T00:33:32.748Z,48.63
2022-12-14T00:35:59.707Z,48.85
2022-12-14T00:38:26.761Z,48.36
2022-12-14T00:40:54.708Z,48.64
2022-12-14T00:43:22.128Z,48.75
2022-12-14T00:45:49.042Z,48.80
2022-12-14T00:48:15.642Z,48.47
2022-12-14T00:50:44.473Z,48.78
2022-12-14T00:53:15.629Z,49.02
2022-12-14T00:55:44.348Z,48.73
2022-12-14T00:58:17.749Z,49.24
2022-12-14T01:00:44.531Z,49.75
2022-12-14T01:03:12.047Z,49.31
2022-12-14T01:05:39.206Z,49.63
2022-12-14T01:08:06.672Z,50.40
2022-12-14T01:10:33.361Z,50.24
2022-12-14T01:12:59.806Z,50.14
2022-12-14T01:15:26.301Z,50.04
2022-12-14T01:17:52.954Z,50.81
2022-12-14T01:20:19.922Z,50.64
2022-12-14T01:22:46.515Z,50.55
2022-12-14T01:25:12.988Z,50.20
2022-12-14T01:27:39.542Z,49.36
2022-12-14T01:30:06.538Z,50.01
2022-12-14T01:32:34.826Z,49.48
2022-12-14T01:35:01.539Z,49.18
2022-12-14T01:37:28.958Z,49.44
2022-12-14T01:39:55.495Z,49.48
2022-12-14T01:42:22.223Z,49.75
2022-12-14T01:44:54.206Z,50.23
2022-12-14T01:47:28.967Z,50.25
2022-12-14T01:50:00.124Z,51.70
2022-12-14T01:52:28.870Z,50.33
2022-12-14T01:55:12.006Z,51.02
2022-12-14T01:57:49.127Z,51.46
2022-12-14T02:00:16.895Z,52.32
2022-12-14T02:02:52.620Z,51.05
2022-12-14T02:05:21.182Z,50.89
2022-12-14T02:07:49.201Z,51.34
2022-12-14T02:10:15.986Z,51.75
2022-12-14T02:12:49.264Z,51.23
2022-12-14T02:15:16.741Z,50.71
2022-12-14T02:17:44.512Z,51.33
2022-12-14T02:20:12.199Z,51.29
2022-12-14T02:22:57.485Z,51.18
2022-12-14T02:25:44.830Z,51.63
2022-12-14T02:28:43.289Z,51.11
2022-12-14T02:31:22.105Z,50.28
2022-12-14T02:33:54.610Z,50.27
2022-12-14T02:36:28.616Z,49.88
2022-12-14T02:39:04.272Z,49.72
2022-12-14T02:41:38.424Z,49.41
2022-12-14T02:44:16.320Z,49.62
2022-12-14T02:46:58.173Z,50.02
2022-12-14T02:49:49.441Z,49.20
2022-12-14T02:52:22.346Z,49.54
2022-12-14T02:54:48.824Z,49.21
2022-12-14T02:57:23.814Z,50.09
2022-12-14T02:59:52.581Z,49.24
2022-12-14T03:02:19.207Z,49.38
2022-12-14T03:04:49.780Z,49.00
2022-12-14T03:07:37.673Z,49.44
2022-12-14T03:10:30.934Z,48.96
2022-12-14T03:13:03.387Z,49.20
2022-12-14T03:15:29.940Z,50.12
2022-12-14T03:17:58.321Z,50.53
2022-12-14T03:20:36.053Z,50.43
2022-12-14T03:23:16.754Z,50.14
2022-12-14T03:25:54.087Z,50.32
2022-12-14T03:28:24.553Z,49.84
2022-12-14T03:31:00.625Z,49.08
2022-12-14T03:33:29.601Z,49.77
2022-12-14T03:36:14.915Z,49.14
2022-12-14T03:38:44.764Z,49.83
2022-12-14T03:41:21.491Z,51.02
2022-12-14T03:44:19.245Z,50.32
2022-12-14T03:47:23.468Z,50.85
2022-12-14T03:50:19.548Z,51.00
2022-12-14T03:53:03.454Z,50.36
2022-12-14T03:55:36.700Z,50.27
2022-12-14T03:58:24.570Z,50.46
2022-12-14T04:01:08.979Z,50.87
2022-12-14T04:03:46.376Z,50.25
2022-12-14T04:06:26.369Z,50.42
2022-12-14T04:09:12.401Z,50.66
2022-12-14T04:12:04.204Z,51.09
2022-12-14T04:14:53.497Z,50.69
2022-12-14T04:17:43.492Z,50.54
2022-12-14T04:20:16.874Z,51.47
2022-12-14T04:22:49.954Z,51.58
2022-12-14T04:25:40.124Z,51.77
2022-12-14T04:28:44.117Z,51.70
2022-12-14T04:31:14.899Z,51.20
2022-12-14T04:33:47.622Z,51.89
2022-12-14T04:36:24.532Z,50.48
2022-12-14T04:38:55.219Z,52.09
2022-12-14T04:41:25.198Z,51.79
2022-12-14T04:43:54.211Z,51.80
2022-12-14T04:46:25.438Z,51.29
2022-12-14T04:49:12.853Z,50.81
2022-12-14T04:52:05.996Z,50.42
2022-12-14T04:54:48.579Z,50.11
2022-12-14T04:57:24.314Z,50.46
2022-12-14T04:59:51.147Z,50.44
2022-12-14T05:02:39.495Z,50.06
2022-12-14T05:05:19.490Z,49.61
2022-12-14T05:08:07.314Z,49.86
2022-12-14T05:10:39.774Z,48.76
2022-12-14T05:13:22.400Z,49.20
2022-12-14T05:15:50.593Z,49.63
2022-12-14T05:18:17.464Z,48.89
2022-12-14T05:20:46.483Z,48.73
2022-12-14T05:23:13.104Z,49.51
2022-12-14T05:25:39.632Z,48.73
2022-12-14T05:28:06.578Z,49.69
2022-12-14T05:30:34.005Z,50.08
2022-12-14T05:33:00.554Z,50.04
2022-12-14T05:35:27.142Z,49.51
2022-12-14T05:37:53.657Z,49.91
2022-12-14T05:40:20.119Z,50.24
2022-12-14T05:42:49.874Z,50.06
2022-12-14T05:45:20.448Z,50.56
2022-12-14T05:47:46.942Z,50.42
2022-12-14T05:50:13.428Z,50.79
2022-12-14T05:52:39.876Z,51.53
2022-12-14T05:55:07.040Z,50.45
2022-12-14T05:57:33.502Z,50.35
2022-12-14T06:00:00.257Z,49.63
2022-12-14T06:02:27.177Z,49.76
2022-12-14T06:04:53.688Z,49.67
2022-12-14T06:07:25.929Z,49.30
2022-12-14T06:09:54.093Z,48.95
2022-12-14T06:12:20.629Z,49.49
2022-12-14T06:14:47.113Z,49.79
2022-12-14T06:17:13.726Z,49.84
2022-12-14T06:19:40.154Z,48.99
2022-12-14T06:22:06.711Z,49.28
2022-12-14T06:24:33.665Z,49.38
2022-12-14T06:27:00.236Z,49.16
2022-12-14T06:29:28.792Z,49.24
2022-12-14T06:31:55.321Z,49.56
2022-12-14T06:34:26.506Z,48.64
2022-12-14T06:36:55.216Z,48.43
2022-12-14T06:39:21.742Z,48.81
2022-12-14T06:41:51.776Z,48.76
2022-12-14T06:44:18.519Z,48.53
2022-12-14T06:46:45.122Z,47.99
2022-12-14T06:49:14.696Z,49.04
2022-12-14T06:51:41.684Z,49.70
2022-12-14T06:54:10.819Z,49.38
2022-12-14T06:56:37.918Z,49.27
2022-12-14T06:59:05.365Z,48.64
2022-12-14T07:01:32.264Z,48.56
2022-12-14T07:03:59.553Z,48.53
2022-12-14T07:06:27.871Z,48.29
2022-12-14T07:08:58.070Z,47.67
2022-12-14T07:11:25.953Z,47.47
2022-12-14T07:13:53.195Z,46.90
2022-12-14T07:16:23.310Z,47.05
2022-12-14T07:18:50.623Z,46.83
2022-12-14T07:21:18.425Z,46.34
2022-12-14T07:23:45.930Z,46.75
2022-12-14T07:26:13.656Z,47.11
2022-12-14T07:28:41.017Z,46.90
2022-12-14T07:31:11.819Z,46.71
2022-12-14T07:33:38.655Z,46.71
2022-12-14T07:36:10.722Z,46.88
2022-12-14T07:38:38.685Z,46.40
2022-12-14T07:41:11.014Z,46.98
2022-12-14T07:43:39.145Z,46.64
2022-12-14T07:46:09.808Z,46.48
2022-12-14T07:48:36.598Z,46.13
2022-12-14T07:51:08.727Z,46.36
2022-12-14T07:53:37.048Z,46.64
2022-12-14T07:56:08.696Z,46.66
2022-12-14T07:58:36.239Z,46.81
2022-12-14T08:01:11.335Z,46.83
2022-12-14T08:03:39.234Z,46.88
2022-12-14T08:06:07.073Z,46.59
2022-12-14T08:08:33.730Z,47.02
2022-12-14T08:11:01.146Z,47.38
2022-12-14T08:13:28.343Z,47.19
2022-12-14T08:15:55.081Z,47.12
2022-12-14T08:18:21.715Z,47.43
2022-12-14T08:20:53.386Z,48.53
2022-12-14T08:23:20.467Z,48.21
2022-12-14T08:25:54.208Z,47.50
2022-12-14T08:28:21.221Z,47.57
2022-12-14T08:30:47.781Z,48.38
2022-12-14T08:33:14.343Z,48.63
2022-12-14T08:35:41.045Z,49.13
2022-12-14T08:38:08.245Z,48.10
2022-12-14T08:40:35.783Z,48.62
2022-12-14T08:43:02.348Z,48.65
2022-12-14T08:45:28.849Z,48.85
2022-12-14T08:47:58.884Z,48.18
2022-12-14T08:50:26.039Z,48.46
2022-12-14T08:52:53.191Z,48.62
2022-12-14T08:55:25.709Z,47.66
2022-12-14T08:57:54.970Z,47.62
2022-12-14T09:00:21.490Z,47.54
2022-12-14T09:02:51.496Z,46.98
2022-12-14T09:05:18.438Z,46.64
2022-12-14T09:07:45.200Z,46.92
2022-12-14T09:10:12.597Z,46.94
2022-12-14T09:12:39.443Z,47.64
2022-12-14T09:15:06.790Z,47.23
2022-12-14T09:17:34.402Z,46.60
2022-12-14T09:20:01.987Z,45.90
2022-12-14T09:22:28.689Z,46.92
2022-12-14T09:24:55.204Z,46.26
2022-12-14T09:27:22.519Z,46.25
2022-12-14T09:29:50.011Z,45.84
2022-12-14T09:32:16.815Z,45.24
2022-12-14T09:34:43.279Z,44.99
2022-12-14T09:37:09.863Z,44.61
2022-12-14T09:39:37.226Z,44.41
2022-12-14T09:42:33.081Z,45.43
2022-12-14T09:45:05.626Z,44.96
2022-12-14T09:47:50.257Z,44.45
2022-12-14T09:50:19.525Z,44.40
2022-12-14T09:52:48.987Z,44.54
2022-12-14T09:55:20.231Z,45.36
2022-12-14T09:57:48.705Z,44.65
2022-12-14T10:00:20.039Z,44.74
2022-12-14T10:03:06.913Z,45.52
2022-12-14T10:05:53.031Z,46.12
2022-12-14T10:08:37.760Z,46.53
2022-12-14T10:11:14.337Z,45.51
2022-12-14T10:14:19.969Z,46.85
2022-12-14T10:17:01.688Z,45.88
2022-12-14T10:19:46.527Z,45.81
2022-12-14T10:22:16.712Z,45.60
2022-12-14T10:24:48.836Z,45.21
2022-12-14T10:27:24.335Z,45.08
2022-12-14T10:29:57.199Z,44.51
2022-12-14T10:32:45.742Z,43.88
2022-12-14T10:35:16.944Z,43.53
2022-12-14T10:37:45.758Z,43.34
2022-12-14T10:40:32.558Z,43.19
2022-12-14T10:43:05.414Z,43.17
2022-12-14T10:45:50.262Z,43.09
2022-12-14T10:48:29.330Z,43.07
2022-12-14T10:51:02.251Z,42.78
2022-12-14T10:53:41.167Z,43.99
2022-12-14T10:56:14.661Z,43.50
2022-12-14T10:58:41.244Z,43.30
2022-12-14T11:01:13.534Z,43.34
2022-12-14T11:03:42.288Z,42.86
2022-12-14T11:06:17.549Z,42.63
2022-12-14T11:08:48.107Z,42.41
2022-12-14T11:11:21.295Z,43.00
2022-12-14T11:14:07.986Z,43.02
2022-12-14T11:16:39.900Z,42.14
2022-12-14T11:19:16.019Z,41.98
2022-12-14T11:21:42.893Z,41.79
2022-12-14T11:24:24.162Z,42.12
2022-12-14T11:26:52.887Z,42.02
2022-12-14T11:29:23.960Z,40.93
2022-12-14T11:31:53.830Z,40.80
2022-12-14T11:34:38.429Z,41.18
2022-12-14T11:37:21.491Z,42.45
2022-12-14T11:39:53.675Z,41.84
2022-12-14T11:42:20.867Z,41.87
2022-12-14T11:44:49.394Z,41.35
2022-12-14T11:47:18.836Z,42.32
2022-12-14T11:49:48.088Z,41.94
2022-12-14T11:52:18.300Z,41.45
2022-12-14T11:54:49.564Z,41.08
2022-12-14T11:57:31.085Z,41.93
2022-12-14T12:00:07.275Z,41.03
2022-12-14T12:02:33.823Z,42.03
2022-12-14T12:05:05.939Z,41.06
2022-12-14T12:07:34.846Z,40.66
2022-12-14T12:10:13.701Z,40.49
2022-12-14T12:12:55.246Z,41.29
2022-12-14T12:15:43.308Z,40.44
2022-12-14T12:18:27.667Z,39.36
2022-12-14T12:20:57.386Z,38.64
2022-12-14T12:23:30.734Z,38.47
2022-12-14T12:25:58.959Z,37.77
2022-12-14T12:28:32.129Z,38.19
2022-12-14T12:31:10.384Z,37.44
2022-12-14T12:33:46.848Z,36.02
2022-12-14T12:36:20.457Z,38.31
2022-12-14T12:39:12.531Z,37.16
2022-12-14T12:42:05.523Z,37.32
2022-12-14T12:44:50.701Z,38.00
2022-12-14T12:47:27.941Z,38.42
2022-12-14T12:50:09.482Z,38.93
2022-12-14T12:53:03.255Z,40.11
2022-12-14T12:55:34.459Z,39.93
2022-12-14T12:58:02.981Z,39.50
2022-12-14T13:00:30.502Z,40.05
2022-12-14T13:03:45.088Z,41.61
2022-12-14T13:06:25.294Z,41.42
2022-12-14T13:08:58.245Z,42.57
2022-12-14T13:11:31.740Z,42.13
2022-12-14T13:14:03.696Z,42.07
2022-12-14T13:16:34.001Z,42.10
2022-12-14T13:19:25.437Z,42.36
2022-12-14T13:21:55.158Z,43.42
2022-12-14T13:24:23.888Z,42.49
2022-12-14T13:26:58.247Z,42.32
2022-12-14T13:29:40.346Z,41.99
2022-12-14T13:32:33.789Z,41.43
2022-12-14T13:35:41.075Z,42.73
2022-12-14T13:38:17.239Z,43.30
2022-12-14T13:40:46.981Z,42.80
2022-12-14T13:43:20.952Z,42.64
2022-12-14T13:45:50.035Z,43.03
2022-12-14T13:48:25.312Z,43.59
2022-12-14T13:51:03.637Z,43.79
2022-12-14T13:53:43.613Z,43.49
2022-12-14T13:56:27.825Z,43.76
2022-12-14T13:59:00.434Z,44.29
2022-12-14T14:01:45.606Z,44.06
2022-12-14T14:04:15.117Z,44.80
2022-12-14T14:06:54.941Z,45.06
2022-12-14T14:09:30.512Z,45.39
2022-12-14T14:12:21.859Z,44.88
2022-12-14T14:14:58.581Z,44.84
2022-12-14T14:17:28.141Z,45.06
2022-12-14T14:19:56.483Z,45.14
2022-12-14T14:22:29.801Z,45.33
2022-12-14T14:25:09.388Z,45.76
2022-12-14T14:27:38.636Z,46.16
2022-12-14T14:30:28.213Z,46.71
2022-12-14T14:33:07.635Z,46.13
2022-12-14T14:35:40.165Z,46.71
2022-12-14T14:38:31.306Z,46.39
2022-12-14T14:41:17.375Z,46.74
2022-12-14T14:43:51.519Z,46.97
2022-12-14T14:46:22.909Z,46.52
2022-12-14T14:48:54.066Z,46.32
2022-12-14T14:51:25.345Z,46.40
2022-12-14T14:54:46.172Z,47.23
2022-12-14T14:57:53.844Z,46.67
2022-12-14T15:00:20.366Z,47.11
2022-12-14T15:02:47.329Z,46.78
2022-12-14T15:08:34.742Z,47.56
2022-12-14T15:11:11.375Z,47.88
2022-12-14T15:13:46.604Z,47.98
2022-12-14T15:16:25.081Z,47.79
2022-12-14T15:18:51.946Z,48.18
2022-12-14T15:21:19.238Z,47.84
2022-12-14T15:23:51.587Z,48.62
2022-12-14T15:26:28.956Z,48.36
2022-12-14T15:28:58.185Z,48.56
2022-12-14T15:31:33.152Z,48.78
2022-12-14T15:34:00.332Z,49.89
2022-12-14T15:36:30.202Z,49.33
2022-12-14T15:38:57.720Z,48.80
2022-12-14T15:41:27.518Z,49.28
2022-12-14T15:43:59.742Z,49.44
2022-12-14T15:46:33.773Z,48.76
2022-12-14T15:49:03.618Z,49.03
2022-12-14T15:51:37.388Z,49.52
2022-12-14T15:54:06.159Z,49.69
2022-12-14T15:56:44.667Z,49.58
2022-12-14T15:59:17.708Z,48.76
2022-12-14T16:01:54.383Z,49.38
2022-12-14T16:04:23.428Z,49.85
2022-12-14T16:07:04.487Z,49.90
2022-12-14T16:09:38.926Z,49.67
2022-12-14T16:12:15.592Z,50.14
2022-12-14T16:14:50.742Z,49.77
2022-12-14T16:17:22.323Z,50.33
2022-12-14T16:20:00.026Z,49.72
2022-12-14T16:22:31.995Z,49.69
2022-12-14T16:25:01.818Z,49.85
2022-12-14T16:27:29.872Z,49.86
2022-12-14T16:30:17.487Z,49.53
2022-12-14T16:32:50.161Z,50.45
2022-12-14T16:35:21.330Z,50.42
2022-12-14T16:37:51.348Z,50.63
2022-12-14T16:40:39.620Z,50.27
2022-12-14T16:43:08.008Z,50.50
2022-12-14T16:45:44.156Z,51.19
2022-12-14T16:48:18.109Z,50.96
2022-12-14T16:51:07.909Z,50.48
2022-12-14T16:53:31.387Z,50.82
2022-12-14T16:56:04.073Z,50.35
2022-12-14T16:58:30.890Z,50.64
2022-12-14T17:01:03.583Z,50.38
2022-12-14T17:03:31.925Z,50.96
2022-12-14T17:06:01.003Z,51.14
2022-12-14T17:08:27.749Z,50.92
2022-12-14T17:10:54.951Z,51.25
2022-12-14T17:13:23.873Z,51.16
2022-12-14T17:16:00.103Z,50.80
2022-12-14T17:18:39.595Z,50.73
2022-12-14T17:21:07.627Z,51.39
2022-12-14T17:23:36.921Z,51.25
2022-12-14T17:26:03.944Z,51.56
2022-12-14T17:28:34.603Z,51.09
2022-12-14T17:31:02.743Z,50.98
2022-12-14T17:33:30.291Z,51.42
2022-12-14T17:35:57.204Z,51.41
2022-12-14T17:38:23.804Z,51.15
2022-12-14T17:40:50.915Z,51.65
2022-12-14T17:43:24.880Z,50.85
2022-12-14T17:45:51.453Z,50.74
2022-12-14T17:48:18.193Z,50.31
2022-12-14T17:50:47.248Z,50.37
2022-12-14T17:53:20.773Z,50.33
2022-12-14T17:55:47.358Z,50.63
2022-12-14T17:58:13.860Z,50.39
2022-12-14T18:00:59.473Z,50.38
2022-12-14T18:03:26.815Z,50.25
2022-12-14T18:05:54.103Z,50.94
2022-12-14T18:08:22.609Z,50.97
2022-12-14T18:10:56.784Z,51.17
2022-12-14T18:13:23.414Z,51.32
2022-12-14T18:15:51.664Z,51.37
2022-12-14T18:18:19.761Z,51.41
2022-12-14T18:20:53.114Z,51.01
2022-12-14T18:23:21.296Z,51.21
2022-12-14T18:25:56.282Z,50.92
2022-12-14T18:28:23.462Z,50.83
2022-12-14T18:30:53.488Z,51.21
2022-12-14T18:33:23.771Z,50.46
2022-12-14T18:35:51.020Z,50.65
2022-12-14T18:38:17.575Z,50.46
2022-12-14T18:40:49.638Z,50.98
2022-12-14T18:43:23.563Z,50.84
2022-12-14T18:45:53.915Z,51.03
2022-12-14T18:48:21.575Z,50.39
2022-12-14T18:50:49.925Z,50.47
2022-12-14T18:53:18.481Z,50.66
2022-12-14T18:55:45.004Z,50.77
2022-12-14T18:58:20.970Z,50.73
2022-12-14T19:00:48.792Z,50.71
2022-12-14T19:03:15.481Z,50.20
2022-12-14T19:05:42.246Z,50.78
2022-12-14T19:08:10.315Z,50.22
2022-12-14T19:10:39.680Z,50.49
2022-12-14T19:13:06.258Z,50.90
2022-12-14T19:15:34.670Z,50.90
2022-12-14T19:18:01.464Z,51.22
2022-12-14T19:20:29.273Z,51.04
2022-12-14T19:22:56.104Z,50.77
2022-12-14T19:25:23.536Z,50.63
2022-12-14T19:30:38.963Z,51.28
2022-12-14T19:33:05.545Z,50.74
2022-12-14T19:35:32.099Z,50.63
2022-12-14T19:37:58.686Z,50.54
2022-12-14T19:40:27.047Z,50.44
2022-12-14T19:42:55.840Z,50.52
2022-12-14T19:45:23.619Z,50.08
2022-12-14T19:47:50.368Z,50.63
2022-12-14T19:50:17.232Z,51.14
2022-12-14T19:52:44.053Z,51.10
2022-12-14T19:55:11.815Z,50.91
2022-12-14T19:57:42.653Z,50.81
2022-12-14T20:00:12.898Z,50.50
2022-12-14T20:02:39.894Z,50.98
2022-12-14T20:05:07.355Z,50.98
2022-12-14T20:07:37.397Z,50.84
2022-12-14T20:10:08.283Z,50.33
2022-12-14T20:12:35.199Z,50.29
2022-12-14T20:15:01.831Z,50.11
2022-12-14T20:17:28.386Z,50.10
2022-12-14T20:19:55.034Z,50.47
2022-12-14T20:22:23.780Z,50.77
2022-12-14T20:24:51.390Z,50.70
2022-12-14T20:27:19.924Z,50.85
2022-12-14T20:29:47.460Z,50.48
2022-12-14T20:32:14.282Z,51.00
2022-12-14T20:34:42.055Z,51.24
2022-12-14T20:37:08.707Z,50.60
2022-12-14T20:39:35.248Z,50.41
2022-12-14T20:42:01.757Z,50.21
2022-12-14T20:44:28.940Z,50.48
2022-12-14T20:46:55.479Z,50.31
2022-12-14T20:49:23.533Z,50.26
2022-12-14T20:51:50.047Z,49.91
2022-12-14T20:54:18.825Z,50.28
2022-12-14T20:56:49.729Z,50.14
2022-12-14T20:59:17.060Z,50.29
2022-12-14T21:01:44.172Z,49.86
2022-12-14T21:04:10.833Z,49.47
2022-12-14T21:06:39.641Z,49.79
2022-12-14T21:09:09.508Z,50.23
2022-12-14T21:11:56.105Z,49.54
2022-12-14T21:14:24.351Z,49.52
2022-12-14T21:16:50.918Z,49.70
2022-12-14T21:19:17.754Z,49.68
2022-12-14T21:21:49.699Z,49.44
2022-12-14T21:24:37.263Z,49.28
2022-12-14T21:27:08.084Z,48.96
2022-12-14T21:29:34.803Z,49.24
2022-12-14T21:32:01.537Z,50.33
2022-12-14T21:34:28.476Z,50.31
2022-12-14T21:36:54.995Z,50.32
2022-12-14T21:39:21.507Z,50.15
2022-12-14T21:42:06.820Z,50.76
2022-12-14T21:44:37.000Z,50.49
2022-12-14T21:47:05.783Z,50.55
2022-12-14T21:49:32.522Z,50.38
2022-12-14T21:51:59.087Z,50.49
2022-12-14T21:54:26.071Z,50.56
2022-12-14T21:57:11.032Z,50.24
2022-12-14T21:59:42.515Z,50.39
2022-12-14T22:02:18.985Z,50.70
2022-12-14T22:04:46.631Z,50.86
2022-12-14T22:07:18.376Z,50.88
2022-12-14T22:09:49.450Z,51.12
2022-12-14T22:12:17.346Z,51.35
2022-12-14T22:14:43.907Z,52.01
2022-12-14T22:17:11.426Z,51.44
2022-12-14T22:19:37.925Z,51.62
2022-12-14T22:22:05.151Z,50.98
2022-12-14T22:24:31.855Z,51.08
2022-12-14T22:26:59.383Z,50.76
2022-12-14T22:29:25.934Z,51.75
2022-12-14T22:31:52.577Z,51.35
2022-12-14T22:34:21.850Z,51.62
2022-12-14T22:36:49.995Z,51.17
2022-12-14T22:39:17.645Z,52.20
2022-12-14T22:41:44.600Z,51.96
2022-12-14T22:44:12.632Z,51.47
2022-12-14T22:46:40.222Z,51.81
2022-12-14T22:49:07.013Z,51.65
2022-12-14T22:51:33.528Z,52.57
2022-12-14T22:54:00.051Z,52.68
2022-12-14T22:56:31.320Z,52.25
2022-12-14T22:58:57.758Z,51.78
2022-12-14T23:01:24.643Z,51.64
2022-12-14T23:03:52.752Z,51.04
2022-12-14T23:06:20.115Z,50.74
2022-12-14T23:09:06.737Z,50.49
2022-12-14T23:11:52.923Z,50.51
2022-12-14T23:14:38.679Z,50.12
2022-12-14T23:17:24.760Z,50.47
2022-12-14T23:20:09.922Z,51.07
2022-12-14T23:22:54.965Z,51.25
2022-12-14T23:25:40.170Z,51.45
2022-12-14T23:28:25.378Z,51.16
2022-12-14T23:31:10.958Z,52.71
2022-12-14T23:33:56.157Z,53.00
2022-12-14T23:36:41.357Z,52.44
2022-12-14T23:39:26.455Z,52.64
2022-12-14T23:42:11.795Z,52.14
2022-12-14T23:44:57.162Z,53.50
2022-12-14T23:47:42.362Z,52.61
2022-12-14T23:50:27.444Z,51.90
2022-12-14T23:53:12.288Z,51.55
2022-12-14T23:55:57.549Z,52.33
2022-12-14T23:58:42.856Z,52.96
